Aeroporto :
LOGIN :

Iscrizione | Disclaimer

   EN    FR    IT 

 










Sommario :    VFR   VFR Marginale   IFR   IFR Intensivo   IFR Molto Intensivo
Visibilità : 
Base nubi : 
>= 8 km
>= 3000ft
5 / 8 km
1000 / 3000 ft
1500m / 5 km
500 / 1000 ft
800 / 1500m
200 / 500 ft
< 800m
< 200 ft
Simboli :   Temporali  Nebbia  Neve Forte  Precipitazioni Forti  Vento > 20 kt
SIGMETs :   Varie  Temporali  Ghiacco  Turbolenza  Onda orograficha  Ceneri Vulcaniche







- Altitudine del aeroporto : 194 ft


EBCV - Chièvres

ULTIMO METAR :
  • 211104Z AUTO 31003KT 9999 SCT013/// 11/08 Q1035 GRN

METARs OBSOLETI :
  • 211055Z AUTO 31003KT 9999 FEW010/// 11/08 Q1035 BLU
  • 211025Z AUTO 32003KT 9999 BKN009/// 10/08 Q1035 GRN
  • 211009Z AUTO VRB02KT 8000 FEW007/// SCT008/// 10/08 Q1035 GRN
  • 210955Z AUTO VRB02KT 9000 FEW006/// 10/07 Q1035 BLU
  • 210943Z AUTO VRB02KT 9999 FEW006/// 09/07 Q1035 BLU
  • 210925Z AUTO VRB01KT 5000 BR SCT001/// 08/08 Q1035 RED
  • 210855Z AUTO VRB01KT 0250 FG OVC002/// 07/07 Q1035 RED
  • 210825Z AUTO VRB01KT 0100 FG OVC001/// 06/06 Q1035 RED

TAF TAF EBCV
Valido dal 21 a 10 ore il 21 a 19 ore UTC


210841Z 2110/2119 VRB03KT 5000 BR SCT020 BKN030
TEMPO 2110/2112 4000 BR SCT007 BKN030
BECMG 2110/2112 9999 NSW FEW025 SCT030
BECMG 2117/2119 03005KT FEW030 BY EBWM
Nessun NOTAM noto per questo aeroporto.



MetMap, La meteo Aeronautica in un colpo d'occhio ! - Copyright ORBIFLY Dicembre 2007 - Disclaimer

ORBIFLY MET'MAP TEAM :

Programmazione e sviluppo : Alexandra Zaïnal
Concezione e sviluppo : Baudouin d'Aumeries
Co-Programmazione e sviluppo : Marc-Olivier Méhu
Supporto tecnico e logistico : Manuel Goepfert
Aiuto per la traduzione : Arnaldo La Scala

Contatto : metmap@orbifly.com




FONTI E CREDITI :

   NOAA